Time;durP1;ratioP1;P1;durP2;ratioP2;P2;SDS_P1;SDS_P2;PMS_P1;PMS_P2;Temp;Humidity;BMP_temperature;BMP_pressure;BME280_temperature;BME280_humidity;BME280_pressure;Samples;Min_cycle;Max_cycle;Signal;HPM_P1;HPM_P2
2023/04/23 00:02:01;;;;;;;25.35;16.13;;;10.40;99.90;;;;;;6335715;22;20041;-69
2023/04/23 00:04:29;;;;;;;29.00;16.33;;;10.40;99.90;;;;;;6333776;22;20022;-69
2023/04/23 00:06:56;;;;;;;31.75;18.45;;;10.30;99.90;;;;;;6307337;22;20494;-69
2023/04/23 00:09:22;;;;;;;28.55;17.08;;;10.30;99.90;;;;;;6335427;22;20015;-69
2023/04/23 00:11:48;;;;;;;27.88;17.05;;;10.30;99.90;;;;;;6335406;22;20018;-69
2023/04/23 00:14:14;;;;;;;32.13;18.27;;;10.40;99.90;;;;;;6307322;22;20018;-69
2023/04/23 00:16:41;;;;;;;30.08;17.13;;;10.30;99.90;;;;;;6335211;22;20018;-69
2023/04/23 00:19:06;;;;;;;28.33;17.20;;;10.30;99.90;;;;;;6335199;22;20110;-69
2023/04/23 00:21:32;;;;;;;28.80;17.33;;;10.30;99.90;;;;;;6334940;22;20057;-70
2023/04/23 00:23:58;;;;;;;28.30;17.23;;;10.30;99.90;;;;;;6307132;22;20022;-69
2023/04/23 00:26:24;;;;;;;32.88;18.02;;;10.20;99.90;;;;;;6307170;22;20403;-69
2023/04/23 00:28:49;;;;;;;32.92;18.58;;;10.30;99.90;;;;;;6334559;22;20155;-69
2023/04/23 00:31:15;;;;;;;33.00;18.50;;;10.20;99.90;;;;;;6334333;22;20103;-69
2023/04/23 00:33:41;;;;;;;30.38;17.58;;;10.30;99.90;;;;;;6307206;22;20023;-69
2023/04/23 00:36:07;;;;;;;34.05;17.88;;;10.20;99.90;;;;;;6335117;22;20022;-69
2023/04/23 00:38:33;;;;;;;31.65;18.38;;;10.30;99.90;;;;;;6334927;22;20019;-69
2023/04/23 00:40:58;;;;;;;30.85;17.88;;;10.20;99.90;;;;;;6334582;22;20080;-69
2023/04/23 00:43:24;;;;;;;33.60;18.40;;;10.20;99.90;;;;;;6334930;22;20025;-69
2023/04/23 00:45:50;;;;;;;34.90;19.02;;;10.20;99.90;;;;;;6307053;22;20103;-69
2023/04/23 00:48:16;;;;;;;32.38;19.60;;;10.20;99.90;;;;;;6334888;22;20042;-69
2023/04/23 00:50:42;;;;;;;32.67;18.90;;;10.30;99.90;;;;;;6334946;22;20015;-69
2023/04/23 00:53:07;;;;;;;35.10;19.95;;;10.20;99.90;;;;;;6306839;22;20108;-69
2023/04/23 00:55:34;;;;;;;33.92;20.20;;;10.10;99.90;;;;;;6306892;22;20015;-69
2023/04/23 00:58:00;;;;;;;35.53;20.90;;;10.10;99.90;;;;;;6334541;22;20111;-69
2023/04/23 01:00:26;;;;;;;40.55;20.48;;;10.00;99.90;;;;;;6335105;22;20019;-69
2023/04/23 01:02:52;;;;;;;36.00;20.52;;;10.10;99.90;;;;;;6334847;22;20019;-69
2023/04/23 01:05:20;;;;;;;42.20;22.15;;;10.10;99.90;;;;;;6305897;22;20026;-69
2023/04/23 01:07:46;;;;;;;47.10;23.23;;;10.10;99.90;;;;;;6307339;22;20015;-70
2023/04/23 01:10:12;;;;;;;40.00;22.30;;;10.10;99.90;;;;;;6335002;22;20126;-69
2023/04/23 01:12:38;;;;;;;48.80;24.95;;;10.10;99.90;;;;;;6308914;22;20023;-69
2023/04/23 01:15:05;;;;;;;48.35;24.88;;;10.10;99.90;;;;;;6309468;22;20100;-69
2023/04/23 01:17:31;;;;;;;51.67;26.25;;;10.10;99.90;;;;;;6335509;22;20021;-69
2023/04/23 01:19:57;;;;;;;53.55;26.20;;;10.10;99.90;;;;;;6334674;22;20007;-69
2023/04/23 01:22:23;;;;;;;49.30;25.70;;;10.10;99.90;;;;;;6306855;22;20022;-69
2023/04/23 01:24:49;;;;;;;55.65;29.73;;;10.00;99.90;;;;;;6306623;22;20022;-69
2023/04/23 01:27:15;;;;;;;55.92;28.00;;;10.00;99.90;;;;;;6333964;22;20079;-70
2023/04/23 01:29:41;;;;;;;60.40;29.38;;;10.00;99.90;;;;;;6306087;22;20022;-69
2023/04/23 01:32:07;;;;;;;66.75;31.35;;;10.00;99.90;;;;;;6306724;22;20034;-69
2023/04/23 01:34:34;;;;;;;58.55;29.65;;;10.00;99.90;;;;;;6334548;22;20022;-69
2023/04/23 01:37:02;;;;;;;65.00;31.88;;;10.00;99.90;;;;;;6334144;22;20023;-69
2023/04/23 01:39:27;;;;;;;66.40;32.42;;;10.00;99.90;;;;;;6306325;22;20026;-69
2023/04/23 01:41:53;;;;;;;58.53;30.38;;;10.00;99.90;;;;;;6334490;22;20738;-69
2023/04/23 01:44:19;;;;;;;62.22;31.30;;;10.00;99.90;;;;;;6306311;22;20031;-69
2023/04/23 01:46:45;;;;;;;69.40;33.90;;;10.00;99.90;;;;;;6333597;22;20022;-69
2023/04/23 01:49:12;;;;;;;69.13;32.42;;;10.00;99.90;;;;;;6306442;22;20129;-70
2023/04/23 01:51:37;;;;;;;61.05;30.70;;;10.00;99.90;;;;;;6306325;22;20084;-69
2023/04/23 01:54:03;;;;;;;60.30;29.33;;;9.90;99.90;;;;;;6306271;22;20292;-69
2023/04/23 01:56:29;;;;;;;56.78;30.20;;;9.80;99.90;;;;;;6334151;22;20019;-69
2023/04/23 01:58:55;;;;;;;61.53;31.98;;;9.80;99.90;;;;;;6305981;22;20027;-69
2023/04/23 02:01:21;;;;;;;61.00;29.73;;;9.70;99.90;;;;;;6333734;22;20018;-69
2023/04/23 02:03:49;;;;;;;62.53;30.30;;;9.80;99.90;;;;;;6306023;22;20071;-69
2023/04/23 02:06:15;;;;;;;61.03;32.35;;;9.80;99.90;;;;;;6306089;22;20019;-69
2023/04/23 02:08:42;;;;;;;63.40;30.85;;;9.80;99.90;;;;;;6305753;22;20022;-69
2023/04/23 02:11:08;;;;;;;61.33;30.27;;;9.80;99.90;;;;;;6334130;22;20027;-69
2023/04/23 02:13:33;;;;;;;64.65;31.13;;;9.70;99.90;;;;;;6305735;22;20022;-69
2023/04/23 02:15:59;;;;;;;62.65;30.35;;;9.60;99.90;;;;;;6334118;22;20050;-69
2023/04/23 02:18:25;;;;;;;65.10;31.80;;;9.50;99.90;;;;;;6306205;22;20023;-69
2023/04/23 02:20:51;;;;;;;69.03;34.03;;;9.50;99.90;;;;;;6333782;22;20023;-69
2023/04/23 02:23:17;;;;;;;60.38;30.80;;;9.50;99.90;;;;;;6306391;22;20030;-69
2023/04/23 02:25:42;;;;;;;64.88;31.40;;;9.40;99.90;;;;;;6332288;22;20019;-69
2023/04/23 02:28:10;;;;;;;69.25;33.75;;;9.40;99.90;;;;;;6334264;22;20617;-69
2023/04/23 02:30:36;;;;;;;63.08;32.55;;;9.40;99.90;;;;;;6305928;22;20029;-69
2023/04/23 02:33:02;;;;;;;62.92;28.92;;;9.40;99.90;;;;;;6334012;22;20107;-69
2023/04/23 02:35:29;;;;;;;65.97;32.00;;;9.40;99.90;;;;;;6333774;22;20019;-69
2023/04/23 02:37:55;;;;;;;62.28;32.03;;;9.40;99.90;;;;;;6334049;22;20061;-69
2023/04/23 02:40:21;;;;;;;60.88;30.98;;;9.40;99.90;;;;;;6332171;22;20018;-69
2023/04/23 02:42:47;;;;;;;61.92;29.15;;;9.30;99.90;;;;;;6334458;22;20006;-69
2023/04/23 02:45:13;;;;;;;62.35;31.33;;;9.40;99.90;;;;;;6334338;22;20015;-69
2023/04/23 02:47:38;;;;;;;59.92;28.50;;;9.20;99.90;;;;;;6332348;22;20713;-69
2023/04/23 02:50:05;;;;;;;52.47;27.55;;;9.20;99.90;;;;;;6332289;22;20030;-69
2023/04/23 02:52:32;;;;;;;49.45;24.95;;;9.10;99.90;;;;;;6333561;22;20019;-69
2023/04/23 02:55:01;;;;;;;46.38;23.85;;;8.90;99.90;;;;;;6305755;22;20497;-69
2023/04/23 02:57:27;;;;;;;48.17;24.73;;;8.80;99.90;;;;;;6334083;22;20018;-69
2023/04/23 02:59:53;;;;;;;48.08;24.98;;;8.70;99.90;;;;;;6334020;22;20391;-69
2023/04/23 03:02:19;;;;;;;52.05;26.10;;;8.70;99.90;;;;;;6333857;22;20429;-69
2023/04/23 03:04:45;;;;;;;54.00;25.35;;;8.80;99.90;;;;;;6334042;22;20018;-69
2023/04/23 03:07:12;;;;;;;53.03;27.65;;;8.80;99.90;;;;;;6333454;22;20018;-69
2023/04/23 03:09:38;;;;;;;56.05;28.08;;;8.70;99.90;;;;;;6333742;22;20440;-69
2023/04/23 03:12:04;;;;;;;48.28;25.75;;;8.70;99.90;;;;;;6305560;22;20023;-69
2023/04/23 03:14:29;;;;;;;53.53;27.42;;;8.60;99.90;;;;;;6333842;22;20015;-69
2023/04/23 03:16:55;;;;;;;50.30;26.67;;;8.60;99.90;;;;;;6332385;22;20057;-69
2023/04/23 03:19:21;;;;;;;49.67;24.58;;;8.60;99.90;;;;;;6333503;22;20059;-69
2023/04/23 03:21:47;;;;;;;51.33;25.80;;;8.50;99.90;;;;;;6333367;22;20025;-69
2023/04/23 03:24:13;;;;;;;97.22;27.65;;;8.50;99.90;;;;;;6333281;22;20383;-69
2023/04/23 03:26:39;;;;;;;90.15;26.33;;;8.40;99.90;;;;;;6305635;22;20030;-69
2023/04/23 03:29:06;;;;;;;48.78;25.58;;;8.40;99.90;;;;;;6333493;22;20477;-67
2023/04/23 03:31:32;;;;;;;59.13;28.30;;;8.40;99.90;;;;;;6306043;22;20026;-69
2023/04/23 03:33:57;;;;;;;55.45;27.13;;;8.40;99.90;;;;;;6334231;22;20018;-69
2023/04/23 03:36:23;;;;;;;57.08;27.88;;;8.30;99.90;;;;;;6333843;22;20028;-69
2023/04/23 03:38:48;;;;;;;61.95;29.67;;;8.20;99.90;;;;;;6331865;22;20072;-69
2023/04/23 03:41:14;;;;;;;65.55;30.60;;;8.40;99.90;;;;;;6305347;22;20126;-69
2023/04/23 03:43:40;;;;;;;67.05;32.72;;;8.30;99.90;;;;;;6332062;22;20117;-69
2023/04/23 03:46:05;;;;;;;66.13;31.15;;;8.50;99.90;;;;;;6305986;22;20450;-68
2023/04/23 03:48:31;;;;;;;66.10;32.08;;;8.60;99.90;;;;;;6334077;22;20014;-69
2023/04/23 03:50:57;;;;;;;67.28;33.67;;;8.60;99.90;;;;;;6333498;22;20102;-69
2023/04/23 03:53:23;;;;;;;71.88;33.58;;;8.60;99.90;;;;;;6333352;22;20409;-69
2023/04/23 03:55:48;;;;;;;76.90;34.70;;;8.70;99.90;;;;;;6333757;22;20018;-69
2023/04/23 03:58:14;;;;;;;72.60;33.95;;;8.70;99.90;;;;;;6333642;22;20038;-69
2023/04/23 04:00:40;;;;;;;73.03;35.33;;;8.70;99.90;;;;;;6305626;22;20023;-68
2023/04/23 04:03:07;;;;;;;74.57;33.97;;;8.70;99.90;;;;;;6333182;22;20060;-69
2023/04/23 04:05:34;;;;;;;72.30;34.63;;;8.70;99.90;;;;;;6333318;22;20022;-69
2023/04/23 04:08:00;;;;;;;67.65;32.72;;;8.70;99.90;;;;;;6305242;22;20445;-69
2023/04/23 04:10:27;;;;;;;65.07;32.72;;;8.60;99.90;;;;;;6333615;22;20023;-69
2023/04/23 04:12:54;;;;;;;65.13;32.65;;;8.50;99.90;;;;;;6305257;22;20027;-69
2023/04/23 04:15:19;;;;;;;62.35;30.27;;;8.50;99.90;;;;;;6279861;22;20022;-69
2023/04/23 04:17:46;;;;;;;63.10;30.27;;;8.50;99.90;;;;;;6305451;22;20046;-69
2023/04/23 04:20:12;;;;;;;61.25;31.10;;;8.50;99.90;;;;;;6305208;22;20014;-69
2023/04/23 04:22:38;;;;;;;63.90;31.70;;;8.50;99.90;;;;;;6333212;22;20029;-69
2023/04/23 04:25:04;;;;;;;61.25;30.30;;;8.60;99.90;;;;;;6333464;22;20334;-69
2023/04/23 04:27:33;;;;;;;66.38;30.35;;;8.60;99.90;;;;;;6333370;22;20046;-69
2023/04/23 04:30:00;;;;;;;61.75;30.67;;;8.60;99.90;;;;;;6332735;22;20030;-69
2023/04/23 04:32:26;;;;;;;62.40;31.17;;;8.60;99.90;;;;;;6332849;22;20029;-68
2023/04/23 04:34:52;;;;;;;70.68;34.28;;;8.60;99.90;;;;;;6304991;22;20023;-69
2023/04/23 04:37:20;;;;;;;63.92;31.20;;;8.60;99.90;;;;;;6334363;22;20010;-69
2023/04/23 04:39:45;;;;;;;64.78;32.10;;;8.40;99.90;;;;;;6307054;22;20021;-69
2023/04/23 04:42:11;;;;;;;65.70;33.10;;;8.50;99.90;;;;;;6306971;22;20106;-69
2023/04/23 04:44:38;;;;;;;66.80;32.03;;;8.50;99.90;;;;;;6307053;22;20034;-69
2023/04/23 04:47:06;;;;;;;72.03;33.33;;;8.50;99.90;;;;;;6334969;22;20102;-69
2023/04/23 04:49:32;;;;;;;75.57;37.33;;;8.40;99.90;;;;;;6334644;22;20744;-69
2023/04/23 04:51:58;;;;;;;75.53;35.10;;;8.60;99.90;;;;;;6334930;22;20019;-69
2023/04/23 04:54:24;;;;;;;71.43;34.00;;;8.60;99.90;;;;;;6334897;22;20022;-69
2023/04/23 04:56:49;;;;;;;72.13;34.92;;;8.50;99.90;;;;;;6305404;22;20050;-69
2023/04/23 04:59:15;;;;;;;74.72;36.05;;;8.50;99.90;;;;;;6331979;22;20039;-69
2023/04/23 05:01:41;;;;;;;81.72;36.83;;;8.60;99.90;;;;;;6332219;22;20029;-69
2023/04/23 05:04:06;;;;;;;73.78;34.13;;;8.70;99.90;;;;;;6333587;22;20021;-69
2023/04/23 05:06:32;;;;;;;73.45;34.30;;;8.50;99.90;;;;;;6334418;22;20015;-69
2023/04/23 05:08:58;;;;;;;69.00;34.47;;;8.50;99.90;;;;;;6334500;22;20071;-69
2023/04/23 05:11:24;;;;;;;72.68;34.58;;;8.50;99.90;;;;;;6306610;22;20025;-69
2023/04/23 05:13:50;;;;;;;78.20;35.60;;;8.60;99.90;;;;;;6306775;22;20030;-69
2023/04/23 05:16:16;;;;;;;73.35;36.13;;;8.60;99.90;;;;;;6334567;22;20485;-69
2023/04/23 05:18:41;;;;;;;79.43;36.58;;;8.70;99.90;;;;;;6334299;22;20015;-69
2023/04/23 05:21:08;;;;;;;77.53;35.00;;;8.80;99.90;;;;;;6334126;22;20102;-69
2023/04/23 05:23:34;;;;;;;69.65;33.85;;;8.70;99.90;;;;;;6334422;22;20011;-70
2023/04/23 05:26:02;;;;;;;76.68;34.80;;;8.70;99.90;;;;;;6306515;22;20022;-69
2023/04/23 05:28:29;;;;;;;74.68;33.13;;;8.70;99.90;;;;;;6306309;22;20027;-69
2023/04/23 05:30:55;;;;;;;72.72;33.97;;;8.70;99.90;;;;;;6332229;22;20027;-69
2023/04/23 05:33:20;;;;;;;70.00;34.55;;;8.70;99.90;;;;;;6280288;22;20053;-69
2023/04/23 05:35:46;;;;;;;71.88;34.65;;;8.70;99.90;;;;;;6333794;22;20018;-69
2023/04/23 05:38:12;;;;;;;77.50;35.45;;;8.90;99.90;;;;;;6306128;22;20099;-69
2023/04/23 05:40:38;;;;;;;79.97;37.67;;;8.90;99.90;;;;;;6332378;22;20023;-69
2023/04/23 05:43:04;;;;;;;74.40;33.58;;;8.80;99.90;;;;;;6334076;22;20465;-69
2023/04/23 05:45:30;;;;;;;72.85;34.58;;;8.90;99.90;;;;;;6333869;22;20027;-69
2023/04/23 05:47:56;;;;;;;76.00;34.75;;;9.00;99.90;;;;;;6306367;22;20460;-69
2023/04/23 05:50:22;;;;;;;81.85;36.05;;;9.00;99.90;;;;;;6332831;22;20022;-69
2023/04/23 05:52:47;;;;;;;77.43;35.78;;;9.10;99.90;;;;;;6306587;22;20405;-69
2023/04/23 05:55:17;;;;;;;70.75;34.20;;;9.10;99.90;;;;;;6334491;22;20449;-69
2023/04/23 05:57:43;;;;;;;73.57;35.88;;;9.20;99.90;;;;;;6334095;22;20015;-69
2023/04/23 06:00:10;;;;;;;76.50;35.47;;;9.30;99.90;;;;;;6334159;22;20022;-69
2023/04/23 06:02:36;;;;;;;77.30;36.50;;;9.40;99.90;;;;;;6306058;22;20320;-69
2023/04/23 06:05:03;;;;;;;75.93;34.72;;;9.50;99.90;;;;;;6306172;22;20022;-69
2023/04/23 06:07:28;;;;;;;78.75;37.25;;;9.70;99.90;;;;;;6334637;22;20092;-69
2023/04/23 06:09:54;;;;;;;80.88;35.00;;;9.80;99.90;;;;;;6334641;22;20483;-69
2023/04/23 06:12:20;;;;;;;70.30;32.67;;;9.90;99.90;;;;;;6306679;22;20022;-69
2023/04/23 06:14:46;;;;;;;73.10;34.45;;;10.10;99.90;;;;;;6306647;22;20022;-69
2023/04/23 06:17:12;;;;;;;67.13;32.25;;;10.10;99.90;;;;;;6280211;22;20017;-69
2023/04/23 06:19:38;;;;;;;69.75;34.35;;;10.20;99.90;;;;;;6334290;22;20098;-69
2023/04/23 06:22:04;;;;;;;64.65;31.98;;;10.30;99.90;;;;;;6305939;22;20011;-69
2023/04/23 06:24:30;;;;;;;71.57;31.98;;;10.50;99.90;;;;;;6306139;22;20437;-69
2023/04/23 06:26:56;;;;;;;65.35;31.05;;;10.50;99.90;;;;;;6305818;22;20019;-68
2023/04/23 07:39:42;;;;;;;46.08;23.25;;;11.80;99.90;;;;;;6314388;22;20029;-69
2023/04/23 07:42:08;;;;;;;43.85;23.02;;;12.00;99.90;;;;;;6333474;22;20497;-69
2023/04/23 07:44:34;;;;;;;44.63;23.63;;;12.10;99.90;;;;;;6305753;22;20061;-69
2023/04/23 07:46:59;;;;;;;47.40;24.45;;;12.20;99.90;;;;;;6305621;22;20022;-69
2023/04/23 07:49:25;;;;;;;46.08;21.90;;;12.30;99.90;;;;;;6333646;22;20018;-69
2023/04/23 07:51:51;;;;;;;43.13;23.42;;;12.40;99.90;;;;;;6305706;22;20054;-69
2023/04/23 07:54:16;;;;;;;47.42;23.80;;;12.50;99.90;;;;;;6333757;22;20058;-69
2023/04/23 07:56:42;;;;;;;43.95;22.45;;;12.60;99.90;;;;;;6333452;22;20046;-69
2023/04/23 07:59:08;;;;;;;44.47;23.33;;;12.70;99.90;;;;;;6333492;22;20322;-69
2023/04/23 08:01:34;;;;;;;38.40;21.75;;;12.70;99.90;;;;;;6305710;22;20025;-69
2023/04/23 08:04:01;;;;;;;43.20;22.10;;;12.80;99.90;;;;;;6333565;22;20019;-69
2023/04/23 08:06:30;;;;;;;35.38;20.38;;;12.90;99.90;;;;;;6305759;22;20018;-69
2023/04/23 08:08:56;;;;;;;36.47;20.75;;;12.90;99.90;;;;;;6305565;22;20618;-69
2023/04/23 08:11:22;;;;;;;37.53;19.75;;;13.00;99.90;;;;;;6333521;22;20015;-70
2023/04/23 08:13:48;;;;;;;34.60;19.45;;;13.00;99.90;;;;;;6307994;22;20152;-70
2023/04/23 08:16:13;;;;;;;36.22;21.58;;;13.10;99.90;;;;;;6307970;22;20052;-69
2023/04/23 08:18:39;;;;;;;37.50;20.75;;;13.10;99.90;;;;;;6307383;22;20022;-69
2023/04/23 08:21:05;;;;;;;34.65;19.80;;;13.10;99.90;;;;;;6335631;22;20388;-69
2023/04/23 08:23:30;;;;;;;35.55;19.33;;;13.20;99.90;;;;;;6335365;22;20086;-69
2023/04/23 08:25:56;;;;;;;33.75;19.60;;;13.30;99.90;;;;;;6306686;22;20022;-69
2023/04/23 08:28:22;;;;;;;37.63;19.80;;;13.30;99.90;;;;;;6334999;22;20117;-69
2023/04/23 08:30:48;;;;;;;38.38;19.92;;;13.30;99.90;;;;;;6307453;22;20057;-69
2023/04/23 08:33:13;;;;;;;30.60;17.60;;;13.30;99.90;;;;;;6307213;22;20544;-69
2023/04/23 08:35:40;;;;;;;32.10;18.00;;;13.40;99.90;;;;;;6307195;22;20018;-70
2023/04/23 08:38:05;;;;;;;35.72;18.90;;;13.50;99.90;;;;;;6335334;22;20106;-69
2023/04/23 08:40:31;;;;;;;32.42;19.58;;;13.60;99.90;;;;;;6334397;22;20026;-69
2023/04/23 08:43:01;;;;;;;35.65;19.55;;;13.60;99.90;;;;;;6334842;22;20023;-69
2023/04/23 08:45:28;;;;;;;31.10;19.02;;;13.70;99.90;;;;;;6333941;22;20014;-69
2023/04/23 08:47:59;;;;;;;36.90;17.95;;;13.80;99.90;;;;;;6306947;22;20076;-72
2023/04/23 08:50:25;;;;;;;29.08;16.90;;;13.90;99.90;;;;;;6335356;22;20054;-70
2023/04/23 08:52:55;;;;;;;31.95;17.45;;;14.00;99.90;;;;;;6334991;22;20015;-70
2023/04/23 08:55:22;;;;;;;29.42;16.88;;;14.00;99.90;;;;;;6334646;22;20041;-69
2023/04/23 08:57:48;;;;;;;29.98;18.20;;;13.90;99.90;;;;;;6307012;22;20023;-70
2023/04/23 09:00:16;;;;;;;28.33;16.80;;;14.00;99.90;;;;;;6334579;22;20102;-70
2023/04/23 09:02:44;;;;;;;28.10;15.73;;;14.00;99.90;;;;;;6280949;22;20023;-69
2023/04/23 09:05:11;;;;;;;26.20;15.77;;;14.10;99.90;;;;;;6334181;22;20071;-69
2023/04/23 09:07:38;;;;;;;24.02;14.55;;;14.30;99.90;;;;;;6306860;22;20477;-70
2023/04/23 09:10:05;;;;;;;22.80;13.70;;;14.30;99.90;;;;;;6334554;22;20082;-69
2023/04/23 09:12:34;;;;;;;23.73;15.05;;;14.40;99.90;;;;;;6334495;22;20090;-70
2023/04/23 09:15:00;;;;;;;24.13;14.00;;;14.40;99.90;;;;;;6334648;22;20102;-70
2023/04/23 09:17:28;;;;;;;19.67;12.52;;;14.50;99.90;;;;;;6334806;22;20534;-70
2023/04/23 09:19:54;;;;;;;21.52;11.85;;;14.60;99.90;;;;;;6334422;22;20736;-70
2023/04/23 09:22:41;;;;;;;21.10;12.80;;;14.70;99.90;;;;;;6306586;22;20064;-69
2023/04/23 09:25:09;;;;;;;21.55;11.95;;;14.70;99.90;;;;;;6306514;22;20094;-70
2023/04/23 09:27:37;;;;;;;20.85;11.48;;;14.80;99.90;;;;;;6334643;22;20023;-70
2023/04/23 09:30:09;;;;;;;21.40;11.13;;;14.80;99.90;;;;;;6305852;22;20026;-70
2023/04/23 09:32:36;;;;;;;23.43;12.83;;;15.00;99.90;;;;;;6306632;22;20049;-69
2023/04/23 09:35:12;;;;;;;20.02;11.40;;;15.00;99.90;;;;;;6306012;22;20327;-70
2023/04/23 09:37:41;;;;;;;18.45;9.80;;;14.90;99.90;;;;;;6280941;22;20025;-70
2023/04/23 09:40:07;;;;;;;15.18;8.55;;;14.90;99.90;;;;;;6332001;22;20092;-72
2023/04/23 09:42:35;;;;;;;15.10;7.65;;;14.90;99.90;;;;;;6306891;22;20026;-71
2023/04/23 09:45:07;;;;;;;13.95;8.82;;;14.90;99.90;;;;;;6306547;22;20034;-71
2023/04/23 09:47:53;;;;;;;17.90;8.30;;;15.10;99.90;;;;;;6332444;22;20031;-71
2023/04/23 09:50:32;;;;;;;14.68;8.38;;;15.20;99.90;;;;;;6334062;22;20025;-72
2023/04/23 09:52:58;;;;;;;15.32;7.55;;;15.30;99.90;;;;;;6306036;22;20023;-72
2023/04/23 09:55:44;;;;;;;15.32;7.72;;;15.20;99.90;;;;;;6334141;22;20021;-71
2023/04/23 09:58:14;;;;;;;12.35;6.70;;;15.20;99.90;;;;;;6306189;22;20449;-72
2023/04/23 10:00:40;;;;;;;13.05;7.03;;;15.30;99.90;;;;;;6306355;22;20029;-72
2023/04/23 10:03:08;;;;;;;11.75;7.13;;;15.50;99.90;;;;;;6306242;22;20023;-71
2023/04/23 10:05:41;;;;;;;14.52;6.43;;;15.70;99.90;;;;;;6334373;22;20018;-71
2023/04/23 10:08:07;;;;;;;12.73;6.13;;;15.80;99.90;;;;;;6306220;22;20065;-72
2023/04/23 10:10:35;;;;;;;13.77;7.03;;;15.80;99.90;;;;;;6334221;22;20080;-72
2023/04/23 10:13:01;;;;;;;12.40;7.03;;;15.80;99.90;;;;;;6306259;22;20058;-72
2023/04/23 10:15:27;;;;;;;9.68;6.15;;;15.80;99.90;;;;;;6335079;22;20046;-72
2023/04/23 10:17:54;;;;;;;8.60;4.75;;;15.90;99.90;;;;;;6334469;22;20030;-72
2023/04/23 10:20:21;;;;;;;12.27;6.30;;;15.90;99.90;;;;;;6334361;22;20022;-72
2023/04/23 10:22:47;;;;;;;10.23;6.10;;;15.90;99.90;;;;;;6333831;22;20342;-72
2023/04/23 10:25:14;;;;;;;7.30;4.55;;;16.00;99.90;;;;;;6333879;22;20019;-72
2023/04/23 10:27:42;;;;;;;10.40;4.78;;;16.10;99.90;;;;;;6306032;22;20046;-72
2023/04/23 10:30:10;;;;;;;7.65;3.90;;;16.20;99.90;;;;;;6333853;22;20018;-72
2023/04/23 10:32:37;;;;;;;8.38;4.13;;;16.20;99.90;;;;;;6306076;22;20033;-72
2023/04/23 10:35:04;;;;;;;8.20;3.10;;;16.10;99.90;;;;;;6305638;22;20030;-72
2023/04/23 10:37:30;;;;;;;6.95;3.45;;;16.30;99.90;;;;;;6305781;22;20023;-72
2023/04/23 10:40:06;;;;;;;9.75;4.65;;;16.30;99.90;;;;;;6331787;22;20042;-72
2023/04/23 10:42:32;;;;;;;6.82;3.10;;;16.40;99.90;;;;;;6305666;22;20030;-71
2023/04/23 10:44:58;;;;;;;5.75;3.15;;;16.40;99.90;;;;;;6305213;22;20106;-70
2023/04/23 10:47:24;;;;;;;5.88;3.40;;;16.50;99.90;;;;;;6332360;22;20022;-72
2023/04/23 10:49:50;;;;;;;9.75;2.90;;;16.40;99.90;;;;;;6305316;22;20050;-71
2023/04/23 10:52:17;;;;;;;5.68;2.92;;;16.40;99.90;;;;;;6333453;22;20018;-72
2023/04/23 10:54:55;;;;;;;6.20;2.55;;;16.50;99.90;;;;;;6333471;22;20019;-71
2023/04/23 10:57:21;;;;;;;5.25;2.45;;;16.40;99.90;;;;;;6305907;22;20010;-73
2023/04/23 10:59:52;;;;;;;8.73;3.65;;;16.50;99.90;;;;;;6279609;22;20026;-71
2023/04/23 11:02:18;;;;;;;5.15;3.00;;;16.40;99.90;;;;;;6333168;22;20022;-71
2023/04/23 11:04:45;;;;;;;6.80;2.80;;;16.40;99.90;;;;;;6333483;22;20025;-71
2023/04/23 11:07:12;;;;;;;9.98;3.22;;;16.40;99.90;;;;;;6305000;22;20023;-72
2023/04/23 11:09:41;;;;;;;2.60;2.03;;;16.50;99.90;;;;;;6331451;22;20090;-71
2023/04/23 11:12:27;;;;;;;6.07;2.00;;;16.60;99.90;;;;;;6305316;22;20506;-71
2023/04/23 11:14:54;;;;;;;5.60;2.13;;;16.60;99.90;;;;;;6294301;22;20023;-71
2023/04/23 11:17:31;;;;;;;6.30;1.85;;;16.80;99.90;;;;;;6333783;22;20023;-71
2023/04/23 11:20:10;;;;;;;6.00;2.03;;;17.00;99.90;;;;;;6305383;22;20406;-71
2023/04/23 11:22:43;;;;;;;5.93;1.67;;;17.00;99.90;;;;;;6280345;22;20022;-71
2023/04/23 11:25:14;;;;;;;6.45;1.63;;;17.10;99.90;;;;;;6305883;22;20097;-72
2023/04/23 11:27:43;;;;;;;7.80;2.05;;;17.20;99.90;;;;;;6333717;22;20393;-72
2023/04/23 11:30:13;;;;;;;4.60;2.13;;;17.10;99.90;;;;;;6333952;22;20124;-77
2023/04/23 11:32:40;;;;;;;3.30;1.75;;;17.10;99.90;;;;;;6279608;22;20030;-73
2023/04/23 11:35:08;;;;;;;6.05;1.45;;;17.20;99.90;;;;;;6305406;22;20015;-74
2023/04/23 11:37:39;;;;;;;6.75;1.80;;;17.30;99.90;;;;;;6305443;22;20027;-74
2023/04/23 11:40:08;;;;;;;3.72;1.25;;;17.40;99.90;;;;;;6304970;22;20019;-74
2023/04/23 11:42:42;;;;;;;8.32;1.60;;;17.40;99.90;;;;;;6305470;22;20058;-74
2023/04/23 11:45:23;;;;;;;6.65;1.52;;;17.40;99.90;;;;;;6305484;22;20025;-74
2023/04/23 11:47:57;;;;;;;4.35;1.52;;;17.20;99.90;;;;;;6333349;22;20090;-74
2023/04/23 11:50:31;;;;;;;3.40;1.33;;;17.30;99.90;;;;;;6306896;22;20022;-74
2023/04/23 11:53:06;;;;;;;8.48;1.50;;;17.30;99.90;;;;;;6307484;22;20050;-74
2023/04/23 11:55:31;;;;;;;4.47;1.38;;;17.40;99.90;;;;;;6307718;22;20025;-74
2023/04/23 11:57:57;;;;;;;4.90;2.63;;;17.50;99.90;;;;;;6307719;22;20106;-74
2023/04/23 12:00:25;;;;;;;7.68;1.70;;;17.70;99.90;;;;;;6335378;22;20683;-74
2023/04/23 12:02:57;;;;;;;4.75;1.50;;;17.60;99.90;;;;;;6307378;22;20354;-74
2023/04/23 12:05:35;;;;;;;6.13;1.63;;;17.70;99.90;;;;;;6307466;22;20026;-74
2023/04/23 12:08:09;;;;;;;2.28;1.23;;;17.80;99.90;;;;;;6307524;22;20439;-74
2023/04/23 12:10:42;;;;;;;6.55;1.58;;;17.80;99.90;;;;;;6307525;22;20019;-74
2023/04/23 12:13:16;;;;;;;5.25;1.65;;;17.70;99.90;;;;;;6335143;22;20339;-75
2023/04/23 12:15:50;;;;;;;6.53;1.70;;;17.80;99.90;;;;;;6307222;22;20076;-75
2023/04/23 12:18:16;;;;;;;6.93;1.73;;;17.80;99.90;;;;;;6307188;22;20441;-75
2023/04/23 12:20:43;;;;;;;4.20;1.40;;;17.80;99.90;;;;;;6335022;22;20057;-75
2023/04/23 12:23:08;;;;;;;6.40;1.92;;;17.90;99.90;;;;;;6307284;22;20074;-75
2023/04/23 12:25:35;;;;;;;5.43;1.42;;;17.90;99.90;;;;;;6307723;22;20363;-74
2023/04/23 12:28:03;;;;;;;4.57;1.83;;;17.80;99.90;;;;;;6307001;22;20022;-75
2023/04/23 12:30:31;;;;;;;3.83;1.58;;;17.80;99.90;;;;;;6307384;22;20783;-74
2023/04/23 12:33:01;;;;;;;2.25;1.45;;;17.70;99.90;;;;;;6281665;22;20015;-75
2023/04/23 12:35:57;;;;;;;2.35;1.20;;;17.70;99.90;;;;;;6307015;22;20454;-75
2023/04/23 12:38:28;;;;;;;4.03;1.35;;;17.70;99.90;;;;;;6293774;22;20092;-75
2023/04/23 12:40:55;;;;;;;2.92;1.30;;;17.70;99.90;;;;;;6307094;22;20022;-75
2023/04/23 12:43:21;;;;;;;6.90;1.52;;;17.70;99.90;;;;;;6307077;22;20043;-75
2023/04/23 12:45:48;;;;;;;2.35;1.08;;;17.80;99.90;;;;;;6306940;22;20015;-75
2023/04/23 12:48:14;;;;;;;5.50;1.30;;;17.70;99.90;;;;;;6334498;22;20018;-75
2023/04/23 12:50:39;;;;;;;8.55;2.38;;;17.70;99.90;;;;;;6306889;22;20022;-75
2023/04/23 12:53:05;;;;;;;2.58;1.30;;;17.60;99.90;;;;;;6307106;22;20362;-74
2023/04/23 12:55:31;;;;;;;2.90;1.60;;;17.60;99.90;;;;;;6334752;22;20094;-74
2023/04/23 12:57:57;;;;;;;5.75;1.00;;;17.70;99.90;;;;;;6306847;22;20030;-75
2023/04/23 13:00:23;;;;;;;4.85;1.00;;;17.60;99.90;;;;;;6307074;22;20054;-74
2023/04/23 13:02:49;;;;;;;5.00;1.13;;;17.70;99.90;;;;;;6306800;22;20033;-75
2023/04/23 13:05:15;;;;;;;2.47;1.65;;;17.80;99.90;;;;;;6306985;22;20026;-74
2023/04/23 13:07:41;;;;;;;4.45;1.10;;;17.80;99.90;;;;;;6306967;22;20019;-75
2023/04/23 13:10:07;;;;;;;2.58;1.10;;;17.80;99.90;;;;;;6307055;22;20411;-75
2023/04/23 13:12:34;;;;;;;5.72;1.58;;;17.80;99.90;;;;;;6334082;22;20083;-75
2023/04/23 13:14:59;;;;;;;4.72;1.27;;;17.80;99.90;;;;;;6306555;22;20019;-74
2023/04/23 13:17:25;;;;;;;2.10;1.10;;;17.80;99.90;;;;;;6306882;22;20023;-75
2023/04/23 13:19:52;;;;;;;3.42;1.17;;;17.80;99.90;;;;;;6306636;22;20018;-75
2023/04/23 13:22:18;;;;;;;4.00;1.30;;;17.80;99.90;;;;;;6334548;22;20061;-75
2023/04/23 13:24:43;;;;;;;3.50;1.20;;;17.90;99.90;;;;;;6334820;22;20022;-75
2023/04/23 13:27:09;;;;;;;2.10;1.27;;;17.90;99.90;;;;;;6306938;22;20046;-75
2023/04/23 13:29:35;;;;;;;4.45;1.80;;;17.90;99.90;;;;;;6306614;22;20090;-75
2023/04/23 13:32:01;;;;;;;3.85;1.30;;;17.90;99.90;;;;;;6305922;22;20111;-74
2023/04/23 13:34:27;;;;;;;1.88;0.75;;;17.80;99.90;;;;;;6306718;22;20030;-76
2023/04/23 13:36:53;;;;;;;5.47;1.33;;;17.90;99.90;;;;;;6306864;22;20022;-73
2023/04/23 13:39:19;;;;;;;6.93;1.38;;;17.80;99.90;;;;;;6306747;22;20342;-73
2023/04/23 13:41:45;;;;;;;1.67;1.05;;;17.80;99.90;;;;;;6307002;22;20124;-72
2023/04/23 13:44:12;;;;;;;3.60;1.42;;;17.80;99.90;;;;;;6306748;22;20037;-73
2023/04/23 13:46:39;;;;;;;4.45;1.17;;;17.80;99.90;;;;;;6333601;22;20010;-73